createdAt,value
2023-03-29T00:13:32.466Z,92.4
2023-03-29T00:33:32.431Z,91.8
2023-03-29T00:53:32.403Z,91.5
2023-03-29T01:13:32.393Z,91.2
2023-03-29T03:53:32.144Z,85.4
2023-03-29T04:13:32.105Z,82.3
2023-03-29T04:53:32.060Z,89.7
2023-03-29T05:33:31.997Z,90.7
2023-03-29T05:53:31.960Z,89.7
2023-03-29T06:13:31.941Z,91.8
2023-03-29T06:33:31.918Z,92
2023-03-29T06:53:31.867Z,91.8
2023-03-29T07:13:31.840Z,90.3
2023-03-29T07:33:31.862Z,88.1
2023-03-29T07:53:31.772Z,84.2
2023-03-29T09:13:31.692Z,79.3
2023-03-29T10:13:31.523Z,91.3
2023-03-29T10:53:31.466Z,82.6
2023-03-29T11:13:31.452Z,83.2
2023-03-29T11:33:31.390Z,82.7
2023-03-29T11:53:31.364Z,74.7
2023-03-29T12:13:31.312Z,72.5
2023-03-29T12:33:31.292Z,68.5
2023-03-29T12:53:31.250Z,68.5
2023-03-29T13:13:31.217Z,69
2023-03-29T13:33:31.163Z,71.4
2023-03-29T14:13:31.083Z,68.4
2023-03-29T14:53:31.016Z,69.3
2023-03-29T15:33:31.012Z,69
2023-03-29T15:53:30.892Z,69.3
2023-03-29T16:13:30.851Z,69.2
2023-03-29T16:33:30.808Z,68.9
2023-03-29T16:53:30.762Z,69.3
2023-03-29T17:13:30.746Z,69.3
2023-03-29T17:33:30.684Z,69.7
2023-03-29T17:53:30.674Z,68.9
2023-03-29T18:13:30.623Z,69.9
2023-03-29T18:33:30.586Z,70.7
2023-03-29T19:13:30.526Z,70.7
2023-03-29T19:33:30.479Z,71
2023-03-29T19:53:30.478Z,72.1
2023-03-29T20:13:37.956Z,73.4
2023-03-29T20:33:30.342Z,75
2023-03-29T20:53:30.435Z,76.6
2023-03-29T21:13:30.286Z,77.6
2023-03-29T21:53:30.194Z,77.8
2023-03-29T22:53:30.088Z,76.1
